sensor_id;sensor_type;location;lat;lon;timestamp;temperature;humidity
37456;DHT22;23316;50.718;7.328;2023-03-19T00:00:03;15.60;48.70
37456;DHT22;23316;50.718;7.328;2023-03-19T00:02:34;15.60;48.80
37456;DHT22;23316;50.718;7.328;2023-03-19T00:05:01;15.60;48.80
37456;DHT22;23316;50.718;7.328;2023-03-19T00:07:30;15.60;48.80
37456;DHT22;23316;50.718;7.328;2023-03-19T00:09:57;15.60;48.80
37456;DHT22;23316;50.718;7.328;2023-03-19T00:12:24;15.60;48.80
37456;DHT22;23316;50.718;7.328;2023-03-19T00:14:51;15.60;48.80
37456;DHT22;23316;50.718;7.328;2023-03-19T00:17:19;15.60;48.80
37456;DHT22;23316;50.718;7.328;2023-03-19T00:19:47;15.60;48.80
37456;DHT22;23316;50.718;7.328;2023-03-19T00:22:15;15.60;48.80
37456;DHT22;23316;50.718;7.328;2023-03-19T00:24:42;15.50;48.80
37456;DHT22;23316;50.718;7.328;2023-03-19T00:27:10;15.50;48.70
37456;DHT22;23316;50.718;7.328;2023-03-19T00:29:37;15.60;48.80
37456;DHT22;23316;50.718;7.328;2023-03-19T00:32:04;15.50;48.80
37456;DHT22;23316;50.718;7.328;2023-03-19T00:34:32;15.60;48.90
37456;DHT22;23316;50.718;7.328;2023-03-19T00:37:00;15.60;48.90
37456;DHT22;23316;50.718;7.328;2023-03-19T00:39:28;15.60;49.00
37456;DHT22;23316;50.718;7.328;2023-03-19T00:41:55;15.60;49.00
37456;DHT22;23316;50.718;7.328;2023-03-19T00:44:22;15.60;49.00
37456;DHT22;23316;50.718;7.328;2023-03-19T00:46:49;15.50;49.00
37456;DHT22;23316;50.718;7.328;2023-03-19T00:49:16;15.50;49.10
37456;DHT22;23316;50.718;7.328;2023-03-19T00:51:43;15.50;49.10
37456;DHT22;23316;50.718;7.328;2023-03-19T00:54:12;15.50;49.10
37456;DHT22;23316;50.718;7.328;2023-03-19T00:56:39;15.50;49.10
37456;DHT22;23316;50.718;7.328;2023-03-19T00:59:07;15.50;49.20
37456;DHT22;23316;50.718;7.328;2023-03-19T01:01:34;15.50;49.20
37456;DHT22;23316;50.718;7.328;2023-03-19T01:04:01;15.50;49.20
37456;DHT22;23316;50.718;7.328;2023-03-19T01:06:28;15.50;49.20
37456;DHT22;23316;50.718;7.328;2023-03-19T01:08:56;15.40;49.20
37456;DHT22;23316;50.718;7.328;2023-03-19T01:11:24;15.50;49.30
37456;DHT22;23316;50.718;7.328;2023-03-19T01:13:51;15.40;49.20
37456;DHT22;23316;50.718;7.328;2023-03-19T01:16:19;15.40;49.70
37456;DHT22;23316;50.718;7.328;2023-03-19T01:18:46;15.40;49.30
37456;DHT22;23316;50.718;7.328;2023-03-19T01:21:13;15.40;49.30
37456;DHT22;23316;50.718;7.328;2023-03-19T01:23:40;15.40;49.40
37456;DHT22;23316;50.718;7.328;2023-03-19T01:26:07;15.40;49.40
37456;DHT22;23316;50.718;7.328;2023-03-19T01:28:36;15.40;49.40
37456;DHT22;23316;50.718;7.328;2023-03-19T01:31:05;15.30;49.40
37456;DHT22;23316;50.718;7.328;2023-03-19T01:33:33;15.40;49.50
37456;DHT22;23316;50.718;7.328;2023-03-19T01:36:00;15.40;49.50
37456;DHT22;23316;50.718;7.328;2023-03-19T01:38:29;15.30;49.50
37456;DHT22;23316;50.718;7.328;2023-03-19T01:40:57;15.30;49.50
37456;DHT22;23316;50.718;7.328;2023-03-19T01:43:25;15.30;49.60
37456;DHT22;23316;50.718;7.328;2023-03-19T01:45:57;15.30;49.50
37456;DHT22;23316;50.718;7.328;2023-03-19T01:48:36;15.30;49.60
37456;DHT22;23316;50.718;7.328;2023-03-19T01:51:04;15.30;49.70
37456;DHT22;23316;50.718;7.328;2023-03-19T01:53:35;15.30;49.70
37456;DHT22;23316;50.718;7.328;2023-03-19T01:56:07;15.30;49.70
37456;DHT22;23316;50.718;7.328;2023-03-19T01:58:35;15.30;49.80
37456;DHT22;23316;50.718;7.328;2023-03-19T02:01:05;15.20;49.70
37456;DHT22;23316;50.718;7.328;2023-03-19T02:03:33;15.20;49.80
37456;DHT22;23316;50.718;7.328;2023-03-19T02:06:01;15.20;49.80
37456;DHT22;23316;50.718;7.328;2023-03-19T02:08:30;15.20;49.80
37456;DHT22;23316;50.718;7.328;2023-03-19T02:10:58;15.30;49.80
37456;DHT22;23316;50.718;7.328;2023-03-19T02:13:27;15.20;49.80
37456;DHT22;23316;50.718;7.328;2023-03-19T02:15:54;15.20;49.80
37456;DHT22;23316;50.718;7.328;2023-03-19T02:18:44;15.20;49.80
37456;DHT22;23316;50.718;7.328;2023-03-19T02:21:14;15.20;49.90
37456;DHT22;23316;50.718;7.328;2023-03-19T02:23:48;15.20;49.90
37456;DHT22;23316;50.718;7.328;2023-03-19T02:26:21;15.20;49.90
37456;DHT22;23316;50.718;7.328;2023-03-19T02:28:50;15.20;49.90
37456;DHT22;23316;50.718;7.328;2023-03-19T02:31:19;15.10;49.90
37456;DHT22;23316;50.718;7.328;2023-03-19T02:33:57;15.10;49.90
37456;DHT22;23316;50.718;7.328;2023-03-19T02:36:26;15.10;49.90
37456;DHT22;23316;50.718;7.328;2023-03-19T02:38:56;15.10;49.90
37456;DHT22;23316;50.718;7.328;2023-03-19T02:41:26;15.10;49.90
37456;DHT22;23316;50.718;7.328;2023-03-19T02:43:54;15.10;49.90
37456;DHT22;23316;50.718;7.328;2023-03-19T02:46:22;15.10;49.90
37456;DHT22;23316;50.718;7.328;2023-03-19T02:48:50;15.00;49.90
37456;DHT22;23316;50.718;7.328;2023-03-19T02:51:18;15.10;49.90
37456;DHT22;23316;50.718;7.328;2023-03-19T02:53:45;15.00;49.90
37456;DHT22;23316;50.718;7.328;2023-03-19T02:56:13;14.90;49.90
37456;DHT22;23316;50.718;7.328;2023-03-19T02:58:42;14.90;49.90
37456;DHT22;23316;50.718;7.328;2023-03-19T03:01:09;14.90;49.90
37456;DHT22;23316;50.718;7.328;2023-03-19T03:03:36;14.90;50.00
37456;DHT22;23316;50.718;7.328;2023-03-19T03:06:04;14.90;50.10
37456;DHT22;23316;50.718;7.328;2023-03-19T03:08:31;14.90;50.10
37456;DHT22;23316;50.718;7.328;2023-03-19T03:10:59;14.80;50.10
37456;DHT22;23316;50.718;7.328;2023-03-19T03:13:26;14.80;50.10
37456;DHT22;23316;50.718;7.328;2023-03-19T03:15:55;14.80;50.20
37456;DHT22;23316;50.718;7.328;2023-03-19T03:18:23;14.80;50.30
37456;DHT22;23316;50.718;7.328;2023-03-19T03:23:56;14.70;50.40
37456;DHT22;23316;50.718;7.328;2023-03-19T03:26:24;14.70;50.30
37456;DHT22;23316;50.718;7.328;2023-03-19T03:28:52;14.70;50.40
37456;DHT22;23316;50.718;7.328;2023-03-19T03:31:20;14.70;50.40
37456;DHT22;23316;50.718;7.328;2023-03-19T03:33:48;14.60;50.40
37456;DHT22;23316;50.718;7.328;2023-03-19T03:36:16;14.60;50.40
37456;DHT22;23316;50.718;7.328;2023-03-19T03:38:44;14.60;50.50
37456;DHT22;23316;50.718;7.328;2023-03-19T03:41:11;14.60;50.50
37456;DHT22;23316;50.718;7.328;2023-03-19T03:43:39;14.60;50.50
37456;DHT22;23316;50.718;7.328;2023-03-19T03:46:06;14.60;50.60
37456;DHT22;23316;50.718;7.328;2023-03-19T03:48:35;14.60;50.60
37456;DHT22;23316;50.718;7.328;2023-03-19T03:51:02;14.50;50.60
37456;DHT22;23316;50.718;7.328;2023-03-19T03:53:30;14.50;50.60
37456;DHT22;23316;50.718;7.328;2023-03-19T03:59:20;14.50;50.80
37456;DHT22;23316;50.718;7.328;2023-03-19T04:01:47;14.50;50.70
37456;DHT22;23316;50.718;7.328;2023-03-19T04:04:16;14.50;50.80
37456;DHT22;23316;50.718;7.328;2023-03-19T04:06:45;14.40;51.10
37456;DHT22;23316;50.718;7.328;2023-03-19T04:09:12;14.50;51.40
37456;DHT22;23316;50.718;7.328;2023-03-19T04:11:40;14.40;50.90
37456;DHT22;23316;50.718;7.328;2023-03-19T04:14:07;14.40;51.00
37456;DHT22;23316;50.718;7.328;2023-03-19T04:16:35;14.40;51.00
37456;DHT22;23316;50.718;7.328;2023-03-19T04:19:02;14.40;51.10
37456;DHT22;23316;50.718;7.328;2023-03-19T04:21:31;14.40;51.10
37456;DHT22;23316;50.718;7.328;2023-03-19T04:23:58;14.40;51.10
37456;DHT22;23316;50.718;7.328;2023-03-19T04:26:27;14.30;51.10
37456;DHT22;23316;50.718;7.328;2023-03-19T04:28:54;14.30;51.10
37456;DHT22;23316;50.718;7.328;2023-03-19T04:31:21;14.30;51.20
37456;DHT22;23316;50.718;7.328;2023-03-19T04:33:49;14.30;51.20
37456;DHT22;23316;50.718;7.328;2023-03-19T04:36:16;14.30;51.20
37456;DHT22;23316;50.718;7.328;2023-03-19T04:38:45;14.30;51.20
37456;DHT22;23316;50.718;7.328;2023-03-19T04:41:12;14.30;51.20
37456;DHT22;23316;50.718;7.328;2023-03-19T04:43:40;14.30;51.20
37456;DHT22;23316;50.718;7.328;2023-03-19T04:46:08;14.30;51.20
37456;DHT22;23316;50.718;7.328;2023-03-19T04:48:35;14.30;51.30
37456;DHT22;23316;50.718;7.328;2023-03-19T04:51:04;14.30;51.30
37456;DHT22;23316;50.718;7.328;2023-03-19T04:53:34;14.30;51.40
37456;DHT22;23316;50.718;7.328;2023-03-19T04:56:03;14.30;51.40
37456;DHT22;23316;50.718;7.328;2023-03-19T04:58:31;14.30;51.40
37456;DHT22;23316;50.718;7.328;2023-03-19T05:00:59;14.30;51.40
37456;DHT22;23316;50.718;7.328;2023-03-19T05:03:26;14.30;51.40
37456;DHT22;23316;50.718;7.328;2023-03-19T05:05:53;14.30;51.40
37456;DHT22;23316;50.718;7.328;2023-03-19T05:08:21;14.30;51.40
37456;DHT22;23316;50.718;7.328;2023-03-19T05:10:48;14.30;51.40
37456;DHT22;23316;50.718;7.328;2023-03-19T05:13:17;14.30;51.40
37456;DHT22;23316;50.718;7.328;2023-03-19T05:15:45;14.30;51.40
37456;DHT22;23316;50.718;7.328;2023-03-19T05:18:13;14.30;51.40
37456;DHT22;23316;50.718;7.328;2023-03-19T05:20:41;14.30;51.40
37456;DHT22;23316;50.718;7.328;2023-03-19T05:23:09;14.40;51.40
37456;DHT22;23316;50.718;7.328;2023-03-19T05:25:36;14.40;51.40
37456;DHT22;23316;50.718;7.328;2023-03-19T05:28:04;14.40;51.50
37456;DHT22;23316;50.718;7.328;2023-03-19T05:30:34;14.40;51.50
37456;DHT22;23316;50.718;7.328;2023-03-19T05:33:01;14.40;51.50
37456;DHT22;23316;50.718;7.328;2023-03-19T05:35:29;14.40;51.50
37456;DHT22;23316;50.718;7.328;2023-03-19T05:37:57;14.40;51.50
37456;DHT22;23316;50.718;7.328;2023-03-19T05:40:24;14.40;51.50
37456;DHT22;23316;50.718;7.328;2023-03-19T05:42:51;14.40;51.60
37456;DHT22;23316;50.718;7.328;2023-03-19T05:45:19;14.40;51.60
37456;DHT22;23316;50.718;7.328;2023-03-19T05:47:48;14.40;51.60
37456;DHT22;23316;50.718;7.328;2023-03-19T05:50:16;14.40;52.10
37456;DHT22;23316;50.718;7.328;2023-03-19T05:52:43;14.40;51.60
37456;DHT22;23316;50.718;7.328;2023-03-19T05:55:10;14.40;51.60
37456;DHT22;23316;50.718;7.328;2023-03-19T05:57:38;14.40;51.60
37456;DHT22;23316;50.718;7.328;2023-03-19T06:00:07;14.40;51.70
37456;DHT22;23316;50.718;7.328;2023-03-19T06:02:35;14.40;51.70
37456;DHT22;23316;50.718;7.328;2023-03-19T06:05:05;14.40;51.70
37456;DHT22;23316;50.718;7.328;2023-03-19T06:07:33;14.40;51.80
37456;DHT22;23316;50.718;7.328;2023-03-19T06:10:00;14.40;51.80
37456;DHT22;23316;50.718;7.328;2023-03-19T06:12:28;14.40;51.80
37456;DHT22;23316;50.718;7.328;2023-03-19T06:14:56;14.50;51.80
37456;DHT22;23316;50.718;7.328;2023-03-19T06:17:23;14.40;51.90
37456;DHT22;23316;50.718;7.328;2023-03-19T06:19:50;14.50;51.90
37456;DHT22;23316;50.718;7.328;2023-03-19T06:22:19;14.50;51.90
37456;DHT22;23316;50.718;7.328;2023-03-19T06:24:47;14.50;51.90
37456;DHT22;23316;50.718;7.328;2023-03-19T06:27:16;14.50;51.90
37456;DHT22;23316;50.718;7.328;2023-03-19T06:29:43;14.50;51.90
37456;DHT22;23316;50.718;7.328;2023-03-19T06:32:11;14.50;52.00
37456;DHT22;23316;50.718;7.328;2023-03-19T06:34:39;14.50;52.00
37456;DHT22;23316;50.718;7.328;2023-03-19T06:37:06;14.60;52.10
37456;DHT22;23316;50.718;7.328;2023-03-19T06:39:35;14.60;52.10
37456;DHT22;23316;50.718;7.328;2023-03-19T06:42:03;14.60;52.10
37456;DHT22;23316;50.718;7.328;2023-03-19T06:44:31;14.60;52.10
37456;DHT22;23316;50.718;7.328;2023-03-19T06:46:58;14.60;52.00
37456;DHT22;23316;50.718;7.328;2023-03-19T06:49:26;14.60;52.00
37456;DHT22;23316;50.718;7.328;2023-03-19T06:51:53;14.60;52.10
37456;DHT22;23316;50.718;7.328;2023-03-19T06:54:21;14.70;52.20
37456;DHT22;23316;50.718;7.328;2023-03-19T06:56:50;14.70;52.20
37456;DHT22;23316;50.718;7.328;2023-03-19T06:59:17;14.70;52.10
37456;DHT22;23316;50.718;7.328;2023-03-19T07:01:45;14.70;52.10
37456;DHT22;23316;50.718;7.328;2023-03-19T07:04:12;14.80;52.10
37456;DHT22;23316;50.718;7.328;2023-03-19T07:06:40;14.70;52.10
37456;DHT22;23316;50.718;7.328;2023-03-19T07:09:07;14.80;52.00
37456;DHT22;23316;50.718;7.328;2023-03-19T07:11:34;14.80;52.00
37456;DHT22;23316;50.718;7.328;2023-03-19T07:14:03;14.80;52.00
37456;DHT22;23316;50.718;7.328;2023-03-19T07:16:30;14.80;52.00
37456;DHT22;23316;50.718;7.328;2023-03-19T07:18:58;14.80;52.00
37456;DHT22;23316;50.718;7.328;2023-03-19T07:21:25;14.80;52.10
37456;DHT22;23316;50.718;7.328;2023-03-19T07:23:53;14.80;52.10
37456;DHT22;23316;50.718;7.328;2023-03-19T07:26:21;14.80;52.20
37456;DHT22;23316;50.718;7.328;2023-03-19T07:28:48;14.80;52.40
37456;DHT22;23316;50.718;7.328;2023-03-19T07:31:17;14.90;52.60
37456;DHT22;23316;50.718;7.328;2023-03-19T07:33:44;14.90;52.80
37456;DHT22;23316;50.718;7.328;2023-03-19T07:36:12;14.90;52.80
37456;DHT22;23316;50.718;7.328;2023-03-19T07:38:39;14.90;52.90
37456;DHT22;23316;50.718;7.328;2023-03-19T07:41:06;14.90;52.90
37456;DHT22;23316;50.718;7.328;2023-03-19T07:43:34;15.00;52.90
37456;DHT22;23316;50.718;7.328;2023-03-19T07:46:01;15.00;52.90
37456;DHT22;23316;50.718;7.328;2023-03-19T07:48:30;15.00;52.90
37456;DHT22;23316;50.718;7.328;2023-03-19T07:50:57;15.10;52.90
37456;DHT22;23316;50.718;7.328;2023-03-19T07:53:24;15.10;52.80
37456;DHT22;23316;50.718;7.328;2023-03-19T07:55:52;15.10;52.90
37456;DHT22;23316;50.718;7.328;2023-03-19T07:58:19;15.10;52.80
37456;DHT22;23316;50.718;7.328;2023-03-19T08:00:46;15.20;52.90
37456;DHT22;23316;50.718;7.328;2023-03-19T08:03:13;15.20;52.90
37456;DHT22;23316;50.718;7.328;2023-03-19T08:05:42;15.20;52.90
37456;DHT22;23316;50.718;7.328;2023-03-19T08:08:10;15.20;52.90
37456;DHT22;23316;50.718;7.328;2023-03-19T08:10:37;15.20;52.80
37456;DHT22;23316;50.718;7.328;2023-03-19T08:13:05;15.20;52.80
37456;DHT22;23316;50.718;7.328;2023-03-19T08:15:32;15.30;52.80
37456;DHT22;23316;50.718;7.328;2023-03-19T08:18:01;15.30;52.70
37456;DHT22;23316;50.718;7.328;2023-03-19T08:20:30;15.30;52.80
37456;DHT22;23316;50.718;7.328;2023-03-19T08:22:59;15.30;52.80
37456;DHT22;23316;50.718;7.328;2023-03-19T08:25:26;15.30;52.80
37456;DHT22;23316;50.718;7.328;2023-03-19T08:27:57;15.30;52.80
37456;DHT22;23316;50.718;7.328;2023-03-19T08:30:24;15.30;52.70
37456;DHT22;23316;50.718;7.328;2023-03-19T08:32:52;15.30;52.60
37456;DHT22;23316;50.718;7.328;2023-03-19T08:35:19;15.30;52.60
37456;DHT22;23316;50.718;7.328;2023-03-19T08:37:46;15.30;52.60
37456;DHT22;23316;50.718;7.328;2023-03-19T08:40:15;15.40;52.70
37456;DHT22;23316;50.718;7.328;2023-03-19T08:42:43;15.40;52.60
37456;DHT22;23316;50.718;7.328;2023-03-19T08:45:12;15.40;52.70
37456;DHT22;23316;50.718;7.328;2023-03-19T08:47:40;15.30;52.70
37456;DHT22;23316;50.718;7.328;2023-03-19T08:50:08;15.40;52.70
37456;DHT22;23316;50.718;7.328;2023-03-19T08:52:36;15.40;52.70
37456;DHT22;23316;50.718;7.328;2023-03-19T08:55:04;15.30;52.60
37456;DHT22;23316;50.718;7.328;2023-03-19T08:57:34;15.30;52.60
37456;DHT22;23316;50.718;7.328;2023-03-19T09:00:02;15.30;52.70
37456;DHT22;23316;50.718;7.328;2023-03-19T09:02:30;15.30;52.70
37456;DHT22;23316;50.718;7.328;2023-03-19T09:04:58;15.30;52.80
37456;DHT22;23316;50.718;7.328;2023-03-19T09:07:25;15.30;52.90
37456;DHT22;23316;50.718;7.328;2023-03-19T09:09:52;15.30;53.10
37456;DHT22;23316;50.718;7.328;2023-03-19T09:12:20;15.30;53.10
37456;DHT22;23316;50.718;7.328;2023-03-19T09:14:48;15.30;53.20
37456;DHT22;23316;50.718;7.328;2023-03-19T09:17:17;15.30;53.40
37456;DHT22;23316;50.718;7.328;2023-03-19T09:19:44;15.30;53.40
37456;DHT22;23316;50.718;7.328;2023-03-19T09:22:11;15.30;53.40
37456;DHT22;23316;50.718;7.328;2023-03-19T09:24:39;15.30;53.60
37456;DHT22;23316;50.718;7.328;2023-03-19T09:27:06;15.30;53.70
37456;DHT22;23316;50.718;7.328;2023-03-19T09:29:34;15.30;53.80
37456;DHT22;23316;50.718;7.328;2023-03-19T09:32:03;15.30;53.90
37456;DHT22;23316;50.718;7.328;2023-03-19T09:34:30;15.20;54.00
37456;DHT22;23316;50.718;7.328;2023-03-19T09:36:58;15.30;54.30
37456;DHT22;23316;50.718;7.328;2023-03-19T09:39:25;15.20;54.50
37456;DHT22;23316;50.718;7.328;2023-03-19T09:42:03;15.20;54.90
37456;DHT22;23316;50.718;7.328;2023-03-19T09:44:34;15.20;55.30
37456;DHT22;23316;50.718;7.328;2023-03-19T09:47:23;15.30;55.30
37456;DHT22;23316;50.718;7.328;2023-03-19T09:49:52;15.20;55.30
37456;DHT22;23316;50.718;7.328;2023-03-19T09:52:30;15.30;55.30
37456;DHT22;23316;50.718;7.328;2023-03-19T09:55:04;15.30;55.50
37456;DHT22;23316;50.718;7.328;2023-03-19T09:57:38;15.30;55.30
37456;DHT22;23316;50.718;7.328;2023-03-19T10:00:18;15.30;55.40
37456;DHT22;23316;50.718;7.328;2023-03-19T10:02:53;15.30;55.60
37456;DHT22;23316;50.718;7.328;2023-03-19T10:05:26;15.30;55.50
37456;DHT22;23316;50.718;7.328;2023-03-19T10:08:06;15.30;55.50
37456;DHT22;23316;50.718;7.328;2023-03-19T10:10:47;15.40;55.60
37456;DHT22;23316;50.718;7.328;2023-03-19T10:13:25;15.30;55.70
37456;DHT22;23316;50.718;7.328;2023-03-19T10:15:58;15.40;55.90
37456;DHT22;23316;50.718;7.328;2023-03-19T10:18:30;15.40;55.90
37456;DHT22;23316;50.718;7.328;2023-03-19T10:21:02;15.40;55.90
37456;DHT22;23316;50.718;7.328;2023-03-19T10:23:42;15.40;55.80
37456;DHT22;23316;50.718;7.328;2023-03-19T10:26:12;15.40;56.00
37456;DHT22;23316;50.718;7.328;2023-03-19T10:28:44;15.50;55.90
37456;DHT22;23316;50.718;7.328;2023-03-19T10:31:21;15.50;55.90
37456;DHT22;23316;50.718;7.328;2023-03-19T10:34:02;15.50;56.10
37456;DHT22;23316;50.718;7.328;2023-03-19T10:36:33;15.50;56.20
37456;DHT22;23316;50.718;7.328;2023-03-19T10:39:02;15.60;56.20
37456;DHT22;23316;50.718;7.328;2023-03-19T10:41:46;15.60;56.20
37456;DHT22;23316;50.718;7.328;2023-03-19T10:44:24;15.70;56.60
37456;DHT22;23316;50.718;7.328;2023-03-19T10:46:56;15.70;56.50
37456;DHT22;23316;50.718;7.328;2023-03-19T10:49:26;15.70;56.40
37456;DHT22;23316;50.718;7.328;2023-03-19T10:51:55;15.70;56.80
37456;DHT22;23316;50.718;7.328;2023-03-19T10:54:25;15.80;56.50
37456;DHT22;23316;50.718;7.328;2023-03-19T10:56:55;15.80;56.40
37456;DHT22;23316;50.718;7.328;2023-03-19T10:59:24;15.80;56.50
37456;DHT22;23316;50.718;7.328;2023-03-19T11:01:56;15.90;56.60
37456;DHT22;23316;50.718;7.328;2023-03-19T11:04:26;15.90;56.70
37456;DHT22;23316;50.718;7.328;2023-03-19T11:06:55;16.00;56.70
37456;DHT22;23316;50.718;7.328;2023-03-19T11:09:33;16.00;56.70
37456;DHT22;23316;50.718;7.328;2023-03-19T11:12:06;16.10;56.40
37456;DHT22;23316;50.718;7.328;2023-03-19T11:14:36;16.10;56.30
37456;DHT22;23316;50.718;7.328;2023-03-19T11:17:15;16.10;56.10
37456;DHT22;23316;50.718;7.328;2023-03-19T11:19:50;16.20;56.20
37456;DHT22;23316;50.718;7.328;2023-03-19T11:22:21;16.20;56.20
37456;DHT22;23316;50.718;7.328;2023-03-19T11:24:53;16.20;56.20
37456;DHT22;23316;50.718;7.328;2023-03-19T11:27:31;16.30;56.30
37456;DHT22;23316;50.718;7.328;2023-03-19T11:30:00;16.30;56.30
37456;DHT22;23316;50.718;7.328;2023-03-19T11:32:50;16.40;56.00
37456;DHT22;23316;50.718;7.328;2023-03-19T11:35:25;16.40;55.80
37456;DHT22;23316;50.718;7.328;2023-03-19T11:37:55;16.40;55.50
37456;DHT22;23316;50.718;7.328;2023-03-19T11:40:30;16.40;55.20
37456;DHT22;23316;50.718;7.328;2023-03-19T11:43:24;16.40;55.10
37456;DHT22;23316;50.718;7.328;2023-03-19T11:46:02;16.50;55.50
37456;DHT22;23316;50.718;7.328;2023-03-19T11:48:46;16.50;55.50
37456;DHT22;23316;50.718;7.328;2023-03-19T11:51:21;16.50;55.70
37456;DHT22;23316;50.718;7.328;2023-03-19T11:53:58;16.60;55.90
37456;DHT22;23316;50.718;7.328;2023-03-19T11:56:31;16.60;55.90
37456;DHT22;23316;50.718;7.328;2023-03-19T12:02:18;16.80;55.90
37456;DHT22;23316;50.718;7.328;2023-03-19T12:05:03;16.80;55.90
37456;DHT22;23316;50.718;7.328;2023-03-19T12:07:39;16.90;55.80
37456;DHT22;23316;50.718;7.328;2023-03-19T12:10:26;16.90;55.40
37456;DHT22;23316;50.718;7.328;2023-03-19T12:12:56;17.00;55.10
37456;DHT22;23316;50.718;7.328;2023-03-19T12:15:28;17.10;55.10
37456;DHT22;23316;50.718;7.328;2023-03-19T12:18:06;17.10;54.70
37456;DHT22;23316;50.718;7.328;2023-03-19T12:20:44;17.10;54.50
37456;DHT22;23316;50.718;7.328;2023-03-19T12:23:26;17.10;54.50
37456;DHT22;23316;50.718;7.328;2023-03-19T12:26:01;17.10;54.40
37456;DHT22;23316;50.718;7.328;2023-03-19T12:28:32;17.00;54.30
37456;DHT22;23316;50.718;7.328;2023-03-19T12:34:09;17.00;54.20
37456;DHT22;23316;50.718;7.328;2023-03-19T12:36:44;17.00;54.80
37456;DHT22;23316;50.718;7.328;2023-03-19T12:39:17;17.00;54.80
37456;DHT22;23316;50.718;7.328;2023-03-19T12:41:45;16.90;54.80
37456;DHT22;23316;50.718;7.328;2023-03-19T12:44:20;16.90;54.90
37456;DHT22;23316;50.718;7.328;2023-03-19T12:46:52;16.90;55.00
37456;DHT22;23316;50.718;7.328;2023-03-19T12:49:24;16.90;55.00
37456;DHT22;23316;50.718;7.328;2023-03-19T12:51:59;17.00;55.10
37456;DHT22;23316;50.718;7.328;2023-03-19T12:54:32;17.00;55.20
37456;DHT22;23316;50.718;7.328;2023-03-19T12:57:03;17.00;55.10
37456;DHT22;23316;50.718;7.328;2023-03-19T12:59:37;17.00;55.50
37456;DHT22;23316;50.718;7.328;2023-03-19T13:02:11;17.00;54.80
37456;DHT22;23316;50.718;7.328;2023-03-19T13:04:48;17.00;54.70
37456;DHT22;23316;50.718;7.328;2023-03-19T13:07:21;17.00;55.00
37456;DHT22;23316;50.718;7.328;2023-03-19T13:09:59;16.90;55.00
37456;DHT22;23316;50.718;7.328;2023-03-19T13:12:31;17.00;55.10
37456;DHT22;23316;50.718;7.328;2023-03-19T13:15:05;17.00;55.10
37456;DHT22;23316;50.718;7.328;2023-03-19T13:17:35;17.00;55.00
37456;DHT22;23316;50.718;7.328;2023-03-19T13:20:17;17.00;55.00
37456;DHT22;23316;50.718;7.328;2023-03-19T13:22:52;17.00;55.10
37456;DHT22;23316;50.718;7.328;2023-03-19T13:25:26;17.10;55.10
37456;DHT22;23316;50.718;7.328;2023-03-19T13:27:56;17.10;55.00
37456;DHT22;23316;50.718;7.328;2023-03-19T13:30:24;17.10;55.00
37456;DHT22;23316;50.718;7.328;2023-03-19T13:33:00;17.10;55.10
37456;DHT22;23316;50.718;7.328;2023-03-19T13:35:37;17.10;55.00
37456;DHT22;23316;50.718;7.328;2023-03-19T13:38:17;17.20;54.80
37456;DHT22;23316;50.718;7.328;2023-03-19T13:40:54;17.20;54.70
37456;DHT22;23316;50.718;7.328;2023-03-19T13:43:53;17.20;54.60
37456;DHT22;23316;50.718;7.328;2023-03-19T13:46:38;17.20;54.90
37456;DHT22;23316;50.718;7.328;2023-03-19T13:49:28;17.20;54.50
37456;DHT22;23316;50.718;7.328;2023-03-19T13:51:59;17.20;54.60
37456;DHT22;23316;50.718;7.328;2023-03-19T13:54:38;17.20;54.50
37456;DHT22;23316;50.718;7.328;2023-03-19T13:57:32;17.30;54.70
37456;DHT22;23316;50.718;7.328;2023-03-19T14:03:01;17.30;54.60
37456;DHT22;23316;50.718;7.328;2023-03-19T14:05:32;17.30;54.50
37456;DHT22;23316;50.718;7.328;2023-03-19T14:08:06;17.30;54.40
37456;DHT22;23316;50.718;7.328;2023-03-19T14:10:46;17.40;54.40
37456;DHT22;23316;50.718;7.328;2023-03-19T14:13:20;17.40;54.20
37456;DHT22;23316;50.718;7.328;2023-03-19T14:15:50;17.40;54.40
37456;DHT22;23316;50.718;7.328;2023-03-19T14:18:20;17.40;54.10
37456;DHT22;23316;50.718;7.328;2023-03-19T14:20:57;17.40;54.10
37456;DHT22;23316;50.718;7.328;2023-03-19T14:23:27;17.40;54.00
37456;DHT22;23316;50.718;7.328;2023-03-19T14:26:00;17.40;53.90
37456;DHT22;23316;50.718;7.328;2023-03-19T14:28:37;17.40;53.70
37456;DHT22;23316;50.718;7.328;2023-03-19T14:31:05;17.40;53.40
37456;DHT22;23316;50.718;7.328;2023-03-19T14:33:42;17.40;53.60
37456;DHT22;23316;50.718;7.328;2023-03-19T14:36:14;17.30;53.70
37456;DHT22;23316;50.718;7.328;2023-03-19T14:38:48;17.30;53.90
37456;DHT22;23316;50.718;7.328;2023-03-19T14:41:19;17.30;54.20
37456;DHT22;23316;50.718;7.328;2023-03-19T14:44:24;17.40;54.30
37456;DHT22;23316;50.718;7.328;2023-03-19T14:50:13;17.40;53.80
37456;DHT22;23316;50.718;7.328;2023-03-19T14:52:49;17.40;53.60
37456;DHT22;23316;50.718;7.328;2023-03-19T14:55:18;17.40;53.60
37456;DHT22;23316;50.718;7.328;2023-03-19T14:57:45;17.50;53.40
37456;DHT22;23316;50.718;7.328;2023-03-19T15:00:15;17.50;54.00
37456;DHT22;23316;50.718;7.328;2023-03-19T15:02:45;17.50;53.50
37456;DHT22;23316;50.718;7.328;2023-03-19T15:05:18;17.50;54.10
37456;DHT22;23316;50.718;7.328;2023-03-19T15:07:49;17.50;53.60
37456;DHT22;23316;50.718;7.328;2023-03-19T15:10:20;17.50;53.70
37456;DHT22;23316;50.718;7.328;2023-03-19T15:13:14;17.50;53.90
37456;DHT22;23316;50.718;7.328;2023-03-19T15:16:01;17.50;54.20
37456;DHT22;23316;50.718;7.328;2023-03-19T15:18:30;17.60;54.00
37456;DHT22;23316;50.718;7.328;2023-03-19T15:20:58;17.60;53.90
37456;DHT22;23316;50.718;7.328;2023-03-19T15:23:26;17.60;53.70
37456;DHT22;23316;50.718;7.328;2023-03-19T15:25:56;17.60;53.50
37456;DHT22;23316;50.718;7.328;2023-03-19T15:28:26;17.70;53.40
37456;DHT22;23316;50.718;7.328;2023-03-19T15:30:58;17.60;53.20
37456;DHT22;23316;50.718;7.328;2023-03-19T15:33:31;17.70;53.30
37456;DHT22;23316;50.718;7.328;2023-03-19T15:36:03;17.70;53.20
37456;DHT22;23316;50.718;7.328;2023-03-19T15:38:34;17.70;52.90
37456;DHT22;23316;50.718;7.328;2023-03-19T15:41:02;17.60;52.70
37456;DHT22;23316;50.718;7.328;2023-03-19T15:43:32;17.60;52.60
37456;DHT22;23316;50.718;7.328;2023-03-19T15:46:05;17.60;52.50
37456;DHT22;23316;50.718;7.328;2023-03-19T15:48:36;17.60;52.40
37456;DHT22;23316;50.718;7.328;2023-03-19T15:51:08;17.50;51.20
37456;DHT22;23316;50.718;7.328;2023-03-19T15:53:37;17.50;51.40
37456;DHT22;23316;50.718;7.328;2023-03-19T15:56:05;17.50;51.20
37456;DHT22;23316;50.718;7.328;2023-03-19T15:58:37;17.50;51.00
37456;DHT22;23316;50.718;7.328;2023-03-19T16:01:07;17.40;50.90
37456;DHT22;23316;50.718;7.328;2023-03-19T16:03:37;17.40;51.50
37456;DHT22;23316;50.718;7.328;2023-03-19T16:06:11;17.30;51.90
37456;DHT22;23316;50.718;7.328;2023-03-19T16:08:45;17.30;52.10